Time;durP1;ratioP1;P1;durP2;ratioP2;P2;SDS_P1;SDS_P2;PMS_P1;PMS_P2;Temp;Humidity;BMP_temperature;BMP_pressure;BME280_temperature;BME280_humidity;BME280_pressure;Samples;Min_cycle;Max_cycle;Signal;HPM_P1;HPM_P2
2021/03/29 00:00:07;;;;;;;8.55;7.62;;;;;;;22.42;33.19;100229.20;1797909;78;21079;-14
2021/03/29 00:02:34;;;;;;;9.10;7.37;;;;;;;22.41;33.20;100223.48;1782253;77;21518;-13
2021/03/29 00:05:04;;;;;;;8.50;7.55;;;;;;;22.42;33.17;100233.22;1796239;77;22246;-13
2021/03/29 00:07:36;;;;;;;9.35;7.70;;;;;;;22.41;33.14;100228.84;1806825;79;21101;-13
2021/03/29 00:10:09;;;;;;;7.87;7.10;;;;;;;22.40;33.12;100228.45;1801985;77;21188;-13
2021/03/29 00:12:38;;;;;;;8.73;7.80;;;;;;;22.39;33.09;100233.93;1791755;79;21216;-14
2021/03/29 00:15:09;;;;;;;7.95;7.17;;;;;;;22.39;33.01;100227.23;1800187;79;21608;-13
2021/03/29 00:17:41;;;;;;;8.28;7.42;;;;;;;22.41;32.97;100231.52;1805737;79;21156;-15
2021/03/29 00:20:19;;;;;;;7.67;6.83;;;;;;;22.41;32.94;100234.70;1779323;78;21144;-13
2021/03/29 00:22:48;;;;;;;7.53;6.80;;;;;;;22.41;32.91;100236.04;1753369;78;21215;-17
2021/03/29 00:25:17;;;;;;;7.58;6.78;;;;;;;22.38;32.85;100234.92;1774350;78;21070;-14
2021/03/29 00:27:44;;;;;;;9.70;7.08;;;;;;;22.37;32.82;100233.19;1757511;78;21160;-14
2021/03/29 00:30:20;;;;;;;7.37;6.67;;;;;;;22.37;32.81;100238.55;1778357;78;21313;-14
2021/03/29 00:32:47;;;;;;;8.70;6.53;;;;;;;22.36;32.76;100240.84;1782355;78;21177;-17
2021/03/29 00:35:16;;;;;;;7.05;6.10;;;;;;;22.36;32.73;100241.73;1776972;78;21145;-14
2021/03/29 00:37:49;;;;;;;6.90;6.15;;;;;;;22.35;32.73;100243.17;1772845;79;21604;-14
2021/03/29 00:40:19;;;;;;;7.42;6.72;;;;;;;22.35;32.71;100245.36;1785996;78;21202;-14
2021/03/29 00:42:52;;;;;;;6.40;5.72;;;;;;;22.34;32.73;100244.13;1772169;79;21133;-13
2021/03/29 00:45:21;;;;;;;6.53;5.92;;;;;;;22.34;32.68;100242.80;1791140;78;21153;-13
2021/03/29 00:47:49;;;;;;;6.80;5.83;;;;;;;22.33;32.64;100245.12;1768304;78;21185;-13
2021/03/29 00:50:32;;;;;;;6.85;5.90;;;;;;;22.33;32.56;100250.48;1769277;79;21173;-13
2021/03/29 00:53:01;;;;;;;5.92;5.33;;;;;;;22.32;32.54;100252.78;1766423;78;21157;-13
2021/03/29 00:55:31;;;;;;;5.67;5.05;;;;;;;22.31;32.51;100254.61;1757114;79;21740;-13
2021/03/29 00:57:59;;;;;;;6.10;5.50;;;;;;;22.31;32.52;100251.93;1777924;78;21898;-15
2021/03/29 01:00:45;;;;;;;6.72;5.72;;;;;;;22.31;32.57;100253.73;1765537;79;21125;-17
2021/03/29 01:03:20;;;;;;;5.83;5.25;;;;;;;22.29;32.63;100250.31;1785577;79;21168;-13
2021/03/29 01:05:52;;;;;;;5.67;5.28;;;;;;;22.28;32.62;100255.28;1780182;79;21145;-14
2021/03/29 01:08:20;;;;;;;6.15;5.55;;;;;;;22.28;32.58;100268.69;1748437;79;21185;-14
2021/03/29 01:10:48;;;;;;;6.00;5.45;;;;;;;22.26;32.57;100261.60;1765133;78;21129;-15
2021/03/29 01:13:18;;;;;;;6.25;5.60;;;;;;;22.26;32.57;100264.77;1767891;79;21193;-13
2021/03/29 01:15:46;;;;;;;5.92;5.28;;;;;;;22.26;32.54;100274.16;1766713;78;21125;-16
2021/03/29 01:18:17;;;;;;;5.78;5.25;;;;;;;22.25;32.51;100270.59;1775358;78;21237;-13
2021/03/29 01:20:59;;;;;;;6.05;5.33;;;;;;;22.24;32.46;100270.24;1771512;79;21186;-16
2021/03/29 01:23:27;;;;;;;5.78;5.25;;;;;;;22.23;32.40;100271.20;1784756;78;21544;-14
2021/03/29 01:26:07;;;;;;;6.90;5.70;;;;;;;22.23;32.43;100271.20;1736125;80;21477;-14
2021/03/29 01:28:34;;;;;;;5.95;5.35;;;;;;;22.22;32.46;100273.98;1743245;80;21553;-14
2021/03/29 01:31:03;;;;;;;6.33;5.47;;;;;;;22.21;32.51;100273.14;1772905;79;21101;-17
2021/03/29 01:33:31;;;;;;;5.80;5.30;;;;;;;22.19;32.52;100275.08;1721157;80;21156;-14
2021/03/29 01:36:00;;;;;;;5.70;5.20;;;;;;;22.19;32.52;100274.20;1750680;80;21145;-14
2021/03/29 01:38:31;;;;;;;6.22;5.62;;;;;;;22.19;32.49;100277.76;1757518;80;21140;-14
2021/03/29 01:40:59;;;;;;;6.17;5.58;;;;;;;22.17;32.48;100281.00;1751177;80;21481;-16
2021/03/29 01:43:27;;;;;;;6.33;5.37;;;;;;;22.17;32.48;100285.52;1773190;79;21097;-14
2021/03/29 01:45:56;;;;;;;5.83;4.85;;;;;;;22.15;32.49;100284.28;1763959;80;21185;-16
2021/03/29 01:48:24;;;;;;;5.17;4.72;;;;;;;22.14;32.51;100282.59;1747364;80;21171;-14
2021/03/29 01:50:55;;;;;;;5.50;5.00;;;;;;;22.14;32.51;100279.03;1750251;80;21169;-14
2021/03/29 01:53:27;;;;;;;5.50;5.00;;;;;;;22.14;32.51;100285.27;1748539;79;21100;-16
2021/03/29 01:55:55;;;;;;;8.10;5.72;;;;;;;22.14;32.49;100281.70;1734209;80;21124;-14
2021/03/29 01:58:22;;;;;;;5.33;4.83;;;;;;;22.13;32.43;100296.94;1740658;80;21186;-16
2021/03/29 02:00:57;;;;;;;5.37;4.97;;;;;;;22.12;32.42;100294.37;1755092;79;21167;-16
2021/03/29 02:03:26;;;;;;;4.78;4.40;;;;;;;22.10;32.43;100295.81;1744742;79;21124;-14
2021/03/29 02:05:55;;;;;;;5.15;4.65;;;;;;;22.10;32.46;100294.47;1764139;79;21093;-14
2021/03/29 02:08:24;;;;;;;5.90;5.30;;;;;;;22.09;32.46;100295.46;1728016;80;21646;-14
2021/03/29 02:10:52;;;;;;;5.58;5.08;;;;;;;22.10;32.46;100298.49;1773280;80;21243;-14
2021/03/29 02:13:23;;;;;;;5.08;4.67;;;;;;;22.10;32.46;100299.83;1744461;80;21564;-14
2021/03/29 02:16:03;;;;;;;5.60;5.10;;;;;;;22.08;32.50;100296.41;1770811;80;21128;-14
2021/03/29 02:18:46;;;;;;;5.55;5.05;;;;;;;22.08;32.39;100293.73;1757363;80;21117;-13
2021/03/29 02:21:19;;;;;;;5.53;4.95;;;;;;;22.08;32.34;100297.75;1742025;80;21057;-13
2021/03/29 02:23:54;;;;;;;6.53;5.33;;;;;;;22.06;32.27;100303.70;1765651;77;22102;-14
2021/03/29 02:26:47;;;;;;;5.87;4.97;;;;;;;22.05;32.28;100307.34;1732071;79;21209;-13
2021/03/29 02:29:27;;;;;;;6.15;5.10;;;;;;;22.05;32.28;100304.66;1743044;80;21149;-13
2021/03/29 02:32:00;;;;;;;5.08;4.65;;;;;;;22.03;32.34;100306.59;1783900;78;21612;-14
2021/03/29 02:34:33;;;;;;;5.28;4.85;;;;;;;22.03;32.30;100310.62;1765931;79;21161;-13
2021/03/29 02:37:04;;;;;;;5.20;4.80;;;;;;;22.02;32.30;100310.23;1783195;78;21372;-13
2021/03/29 02:39:35;;;;;;;5.65;5.03;;;;;;;22.00;32.31;100314.35;1670721;82;21124;-17
2021/03/29 02:42:04;;;;;;;5.55;4.95;;;;;;;22.00;32.35;100317.52;1744250;80;21200;-13
2021/03/29 02:44:32;;;;;;;6.62;5.17;;;;;;;21.99;32.40;100322.03;1749719;79;21159;-13
2021/03/29 02:46:59;;;;;;;4.85;4.45;;;;;;;21.98;32.44;100322.14;1751079;79;21150;-13
2021/03/29 02:49:27;;;;;;;5.42;4.87;;;;;;;21.97;32.44;100320.41;1751898;79;21184;-13
2021/03/29 02:51:54;;;;;;;4.30;4.00;;;;;;;21.97;32.43;100319.07;1796391;78;21160;-15
2021/03/29 02:54:22;;;;;;;5.15;4.75;;;;;;;21.98;32.49;100327.50;1774048;78;21683;-13
2021/03/29 02:56:52;;;;;;;5.60;4.65;;;;;;;21.99;32.61;100331.87;1759265;79;21156;-16
2021/03/29 02:59:20;;;;;;;4.65;4.25;;;;;;;21.99;32.68;100330.08;1788841;78;21192;-14
2021/03/29 03:01:48;;;;;;;4.62;4.22;;;;;;;21.99;32.72;100330.08;1778043;79;21184;-13
2021/03/29 03:04:17;;;;;;;5.03;4.60;;;;;;;21.99;32.77;100330.53;1782168;78;21196;-13
2021/03/29 03:06:45;;;;;;;4.97;4.47;;;;;;;22.00;32.84;100341.64;1774703;79;21078;-16
2021/03/29 03:09:13;;;;;;;5.75;4.50;;;;;;;22.00;32.84;100340.30;1784501;78;21227;-13
2021/03/29 03:11:47;;;;;;;4.95;4.45;;;;;;;22.00;32.89;100337.62;1757948;79;21173;-15
2021/03/29 03:14:17;;;;;;;197.35;152.78;;;;;;;21.99;32.91;100340.80;1784449;78;21224;-13
2021/03/29 03:16:45;;;;;;;65.42;46.15;;;;;;;21.97;31.73;100341.39;1766932;78;21101;-13
2021/03/29 03:19:12;;;;;;;49.25;34.10;;;;;;;21.87;32.32;100345.64;1762612;78;21243;-13
2021/03/29 03:21:42;;;;;;;48.48;32.50;;;;;;;21.84;32.57;100349.89;1778560;78;21117;-13
2021/03/29 03:24:12;;;;;;;45.35;31.17;;;;;;;21.85;32.56;100354.27;1794402;77;21186;-16
2021/03/29 03:26:40;;;;;;;28.95;22.20;;;;;;;21.85;32.56;100359.13;1754522;79;21357;-16
2021/03/29 03:29:09;;;;;;;17.40;12.88;;;;;;;21.85;31.67;100359.63;1789749;78;21628;-16
2021/03/29 03:31:39;;;;;;;41.40;28.75;;;;;;;21.69;30.61;100358.48;1775154;78;22142;-15
2021/03/29 03:34:07;;;;;;;23.38;17.87;;;;;;;21.37;30.83;100360.13;1772373;78;21598;-14
2021/03/29 03:36:35;;;;;;;19.98;12.18;;;;;;;21.08;30.87;100364.23;1773682;79;21090;-14
2021/03/29 03:39:04;;;;;;;12.50;9.40;;;;;;;20.82;31.06;100369.06;1767237;78;21252;-15
2021/03/29 03:41:34;;;;;;;11.03;9.33;;;;;;;20.60;30.94;100366.37;1782555;78;21114;-14
2021/03/29 03:44:06;;;;;;;9.58;7.65;;;;;;;20.40;31.17;100380.50;1751155;78;21086;-14
2021/03/29 03:46:41;;;;;;;14.93;7.65;;;;;;;20.11;31.49;100376.95;1796547;78;21565;-16
2021/03/29 03:49:19;;;;;;;10.58;7.30;;;;;;;19.85;32.00;100375.84;1772936;79;21220;-15
2021/03/29 03:51:47;;;;;;;9.73;7.60;;;;;;;19.72;32.49;100380.15;1754772;79;23386;-14
2021/03/29 03:54:15;;;;;;;8.95;6.90;;;;;;;19.70;32.87;100378.05;1786868;78;22016;-17
2021/03/29 03:56:44;;;;;;;7.05;6.22;;;;;;;19.81;33.02;100383.66;1780707;78;21141;-15
2021/03/29 03:59:11;;;;;;;12.23;6.60;;;;;;;19.93;32.98;100378.91;1765035;79;21582;-16
2021/03/29 04:02:06;;;;;;;8.40;6.22;;;;;;;20.06;32.89;100384.88;1769242;79;21235;-15
2021/03/29 04:04:50;;;;;;;6.62;5.92;;;;;;;20.23;32.82;100384.70;1826534;78;22813;-17
2021/03/29 04:07:17;;;;;;;8.35;6.25;;;;;;;20.31;32.72;100388.22;1838692;77;21173;-18
2021/03/29 04:09:56;;;;;;;6.47;5.87;;;;;;;20.39;32.65;100389.49;1811860;78;22117;-14
2021/03/29 04:12:23;;;;;;;6.55;5.58;;;;;;;20.48;32.60;100390.73;1815423;78;21070;-17
2021/03/29 04:14:52;;;;;;;6.37;5.72;;;;;;;20.54;32.57;100390.81;1816659;77;21050;-15
2021/03/29 04:17:21;;;;;;;8.95;5.83;;;;;;;20.56;32.51;100387.56;1768107;79;21217;-16
2021/03/29 04:19:50;;;;;;;6.03;5.40;;;;;;;20.57;32.58;100391.97;1736876;80;21185;-15
2021/03/29 04:22:18;;;;;;;6.25;5.65;;;;;;;20.60;32.54;100392.63;1758004;80;22313;-15
2021/03/29 04:24:45;;;;;;;6.30;5.12;;;;;;;20.67;32.42;100393.14;1722723;80;21153;-15
2021/03/29 04:27:12;;;;;;;7.75;6.45;;;;;;;20.68;32.54;100397.55;1744352;81;21493;-15
2021/03/29 04:29:41;;;;;;;6.35;5.45;;;;;;;20.72;32.40;100404.89;1771599;80;21145;-15
2021/03/29 04:32:09;;;;;;;6.50;5.55;;;;;;;20.73;32.47;100403.46;1747801;80;21202;-15
2021/03/29 04:34:39;;;;;;;5.80;5.30;;;;;;;20.76;32.49;100408.62;1747642;80;21249;-15
2021/03/29 04:37:07;;;;;;;6.08;5.53;;;;;;;20.77;32.46;100404.97;1748635;80;21559;-15
2021/03/29 04:39:36;;;;;;;6.80;5.47;;;;;;;20.77;32.49;100409.47;1772405;80;21141;-18
2021/03/29 04:42:06;;;;;;;6.12;5.55;;;;;;;20.72;32.55;100413.77;1741940;80;21770;-15
2021/03/29 04:44:34;;;;;;;6.50;5.20;;;;;;;20.73;32.59;100414.16;1746948;81;21440;-15
2021/03/29 04:47:05;;;;;;;7.92;5.28;;;;;;;20.76;32.65;100421.99;1777895;80;21319;-15
2021/03/29 04:49:34;;;;;;;7.60;5.92;;;;;;;20.76;32.61;100413.97;1730607;80;21122;-15
2021/03/29 04:52:04;;;;;;;5.95;5.33;;;;;;;20.77;32.60;100410.80;1748719;80;21090;-15
2021/03/29 04:54:32;;;;;;;6.65;5.90;;;;;;;20.78;32.62;100417.40;1718641;82;21129;-15
2021/03/29 04:57:00;;;;;;;5.70;5.20;;;;;;;20.83;32.56;100414.90;1750658;80;21588;-15
2021/03/29 04:59:27;;;;;;;7.35;5.75;;;;;;;20.86;32.59;100417.39;1735648;80;22184;-18
2021/03/29 05:01:56;;;;;;;5.85;5.25;;;;;;;20.89;32.57;100421.20;1747047;80;21833;-15
2021/03/29 05:04:23;;;;;;;6.67;6.00;;;;;;;20.90;32.63;100417.59;1750112;80;21503;-15
2021/03/29 05:06:52;;;;;;;7.17;5.60;;;;;;;20.90;32.63;100422.94;1765667;80;21196;-15
2021/03/29 05:09:21;;;;;;;8.75;6.12;;;;;;;20.92;32.59;100427.22;1763219;80;21554;-15
2021/03/29 05:11:53;;;;;;;6.22;5.62;;;;;;;20.91;32.60;100429.98;1771550;80;21567;-15
2021/03/29 05:14:19;;;;;;;6.92;5.80;;;;;;;20.91;32.60;100434.00;1767575;80;21208;-15
2021/03/29 05:16:49;;;;;;;7.53;6.72;;;;;;;20.91;32.43;100428.66;1772880;80;21112;-15
2021/03/29 05:19:17;;;;;;;7.92;5.83;;;;;;;20.86;32.59;100435.62;1752432;80;21200;-15
2021/03/29 05:21:47;;;;;;;6.90;6.20;;;;;;;20.86;32.72;100436.11;1758485;81;21145;-15
2021/03/29 05:24:17;;;;;;;6.67;5.97;;;;;;;20.84;32.71;100440.70;1759631;80;21370;-14
2021/03/29 05:26:44;;;;;;;6.87;6.12;;;;;;;20.78;32.72;100440.13;1785482;80;21165;-15
2021/03/29 05:29:12;;;;;;;7.40;6.70;;;;;;;20.78;32.80;100442.81;1762976;80;21149;-15
2021/03/29 05:31:40;;;;;;;7.12;6.42;;;;;;;20.82;32.81;100441.28;1749835;80;21183;-15
2021/03/29 05:34:14;;;;;;;6.60;5.90;;;;;;;20.83;32.78;100449.22;1768055;80;21168;-15
2021/03/29 05:36:43;;;;;;;7.28;6.08;;;;;;;20.84;32.84;100450.06;1756929;80;21522;-15
2021/03/29 05:39:11;;;;;;;6.55;5.95;;;;;;;20.86;32.65;100453.50;1762502;80;21613;-16
2021/03/29 05:41:39;;;;;;;7.22;6.45;;;;;;;20.81;32.77;100464.47;1768439;80;21119;-16
2021/03/29 05:44:10;;;;;;;7.03;6.15;;;;;;;20.73;32.91;100462.30;1778318;80;21202;-19
2021/03/29 05:46:40;;;;;;;10.20;5.85;;;;;;;20.72;33.02;100467.25;1748202;80;21244;-15
2021/03/29 05:49:07;;;;;;;6.12;5.53;;;;;;;20.75;33.22;100471.08;1785048;80;22116;-15
2021/03/29 05:51:40;;;;;;;6.55;5.83;;;;;;;20.84;33.38;100479.48;1772603;80;21208;-14
2021/03/29 05:54:08;;;;;;;7.85;5.58;;;;;;;20.88;33.60;100475.20;1724539;81;21748;-14
2021/03/29 05:56:40;;;;;;;10.30;6.80;;;;;;;20.92;33.80;100475.86;1752207;80;21171;-17
2021/03/29 06:01:56;;;;;;;10.72;8.33;;;;;;;20.56;31.68;100491.37;1739424;80;22555;-15
2021/03/29 06:04:50;;;;;;;10.93;8.90;;;;;;;20.21;32.08;100497.50;1743412;80;21221;-16
2021/03/29 06:07:28;;;;;;;9.05;8.10;;;;;;;19.94;31.64;100492.83;1778541;79;21184;-16
2021/03/29 06:10:08;;;;;;;10.72;8.50;;;;;;;19.39;32.22;100495.93;1764262;80;21204;-15
2021/03/29 06:12:50;;;;;;;11.20;8.38;;;;;;;19.06;32.58;100506.16;1809485;78;21110;-14
2021/03/29 06:15:16;;;;;;;12.30;9.70;;;;;;;18.66;33.04;100512.25;1805483;78;22183;-14
2021/03/29 06:17:45;;;;;;;13.30;9.40;;;;;;;18.25;33.57;100508.59;1805426;77;21564;-14
2021/03/29 06:20:14;;;;;;;12.82;9.55;;;;;;;17.94;33.98;100508.81;1811435;77;21080;-16
2021/03/29 06:22:41;;;;;;;9.68;8.35;;;;;;;17.64;34.48;100511.98;1804838;77;21113;-15
2021/03/29 06:25:20;;;;;;;29.10;17.55;;;;;;;17.51;34.90;100516.17;1812940;78;21615;-18
2021/03/29 06:27:58;;;;;;;68.17;33.60;;;;;;;17.52;35.11;100520.56;1815318;78;21895;-15
2021/03/29 06:30:29;;;;;;;30.60;20.25;;;;;;;17.49;35.29;100518.05;1801695;79;21577;-17
2021/03/29 06:33:05;;;;;;;33.18;20.12;;;;;;;17.30;35.57;100526.00;1810492;77;22109;-17
2021/03/29 06:35:44;;;;;;;26.33;18.32;;;;;;;16.92;36.36;100529.48;1812444;77;21643;-17
2021/03/29 06:38:27;;;;;;;32.38;19.40;;;;;;;16.83;36.88;100532.54;1802220;77;21188;-15
2021/03/29 06:41:00;;;;;;;31.90;18.17;;;;;;;17.08;36.83;100534.52;1796932;77;21663;-16
2021/03/29 06:43:40;;;;;;;31.30;18.23;;;;;;;17.43;36.71;100538.69;1818986;77;21149;-17
2021/03/29 06:46:27;;;;;;;33.40;16.87;;;;;;;17.77;36.42;100539.73;1794342;78;21137;-15
2021/03/29 06:48:58;;;;;;;29.00;16.80;;;;;;;18.11;36.05;100536.78;1815401;77;21573;-14
2021/03/29 06:51:36;;;;;;;28.10;16.62;;;;;;;18.43;35.72;100543.62;1814437;78;21181;-15
2021/03/29 06:54:09;;;;;;;25.30;15.88;;;;;;;18.72;35.49;100546.59;1745876;80;21205;-15
2021/03/29 06:56:43;;;;;;;30.55;15.40;;;;;;;18.93;35.25;100542.84;1708310;82;21153;-15
2021/03/29 06:59:17;;;;;;;25.05;15.68;;;;;;;19.15;35.07;100551.03;1765188;80;21119;-14
2021/03/29 07:01:55;;;;;;;22.98;14.73;;;;;;;19.34;34.88;100547.37;1802871;77;21174;-15
2021/03/29 07:04:26;;;;;;;24.30;15.13;;;;;;;19.50;34.70;100549.55;1764930;79;21247;-14
2021/03/29 07:06:56;;;;;;;25.72;15.13;;;;;;;19.65;34.59;100546.05;1789530;79;21196;-15
2021/03/29 07:09:24;;;;;;;25.25;14.98;;;;;;;19.82;34.48;100548.26;1747486;80;21168;-15
2021/03/29 07:11:54;;;;;;;24.32;14.75;;;;;;;19.96;34.33;100544.83;1741352;80;21196;-16
2021/03/29 07:14:22;;;;;;;19.27;13.20;;;;;;;20.08;34.35;100545.92;1792733;79;21517;-16
2021/03/29 07:16:53;;;;;;;18.60;13.60;;;;;;;20.20;34.23;100550.55;1782745;79;21212;-15
2021/03/29 07:19:23;;;;;;;26.48;13.45;;;;;;;20.32;34.13;100554.31;1794642;79;22562;-15
2021/03/29 07:21:53;;;;;;;17.92;12.60;;;;;;;20.45;33.99;100555.80;1797679;78;21205;-15
2021/03/29 07:24:22;;;;;;;19.32;12.88;;;;;;;20.58;33.85;100555.45;1790808;79;21219;-15
2021/03/29 07:26:57;;;;;;;19.12;12.15;;;;;;;20.69;33.75;100551.67;1722556;79;21220;-15
2021/03/29 07:29:32;;;;;;;17.75;12.78;;;;;;;20.82;33.62;100555.81;1786106;79;21117;-15
2021/03/29 07:32:02;;;;;;;23.33;12.07;;;;;;;20.95;33.51;100558.61;1788337;79;21276;-15
2021/03/29 07:34:47;;;;;;;16.12;11.57;;;;;;;21.06;33.38;100558.78;1785293;79;21226;-15
2021/03/29 07:37:55;;;;;;;17.67;11.65;;;;;;;21.18;33.29;100567.86;1748028;79;21668;-15
2021/03/29 07:40:36;;;;;;;18.02;11.63;;;;;;;21.29;33.20;100568.55;1777107;79;21163;-15
2021/03/29 07:43:23;;;;;;;17.80;11.05;;;;;;;21.41;33.08;100574.46;1778985;79;21134;-17
2021/03/29 07:45:55;;;;;;;16.90;11.25;;;;;;;21.49;33.08;100581.57;1754681;79;21197;-15
2021/03/29 07:48:37;;;;;;;15.78;10.88;;;;;;;21.57;33.04;100585.57;1786079;79;21742;-15
2021/03/29 07:51:17;;;;;;;17.40;10.60;;;;;;;21.65;32.98;100588.63;1747416;79;21198;-15
2021/03/29 07:53:52;;;;;;;19.52;10.82;;;;;;;21.71;32.92;100586.90;1781743;79;21600;-14
2021/03/29 07:56:41;;;;;;;17.62;10.82;;;;;;;21.79;32.84;100595.31;1780590;78;21125;-15
2021/03/29 07:59:10;;;;;;;21.62;12.45;;;;;;;21.85;32.83;100592.70;1754273;79;21117;-16
2021/03/29 08:02:02;;;;;;;91.08;44.55;;;;;;;21.92;31.82;100602.55;1793279;79;21170;-13
2021/03/29 08:05:15;;;;;;;49.80;26.50;;;;;;;21.75;30.85;100607.65;1776420;78;21172;-13
2021/03/29 08:07:46;;;;;;;37.55;21.85;;;;;;;21.32;30.62;100611.20;1780999;78;21146;-13
2021/03/29 08:10:17;;;;;;;37.58;21.37;;;;;;;20.82;31.04;100609.30;1738642;80;21206;-13
2021/03/29 08:12:59;;;;;;;37.63;21.20;;;;;;;20.51;31.56;100614.23;1737449;81;21435;-16
2021/03/29 08:16:02;;;;;;;34.58;19.10;;;;;;;20.37;32.20;100614.55;1756866;79;21181;-16
2021/03/29 08:19:15;;;;;;;36.48;19.90;;;;;;;20.43;32.63;100617.85;1733981;81;21129;-14
2021/03/29 08:21:59;;;;;;;35.33;18.60;;;;;;;20.55;32.78;100619.80;1699072;82;21222;-15
2021/03/29 08:24:35;;;;;;;37.48;19.15;;;;;;;20.68;33.03;100620.83;1750181;79;21187;-14
2021/03/29 08:27:08;;;;;;;30.57;18.25;;;;;;;20.84;33.33;100621.25;1761333;80;21914;-12
2021/03/29 08:29:40;;;;;;;45.38;17.10;;;;;;;20.98;33.31;100621.30;1757644;80;21169;-13
2021/03/29 08:32:15;;;;;;;27.98;16.12;;;;;;;21.11;33.25;100624.06;1768103;80;21169;-13
2021/03/29 08:35:09;;;;;;;32.75;16.57;;;;;;;21.23;33.25;100623.34;1746914;80;21193;-14
2021/03/29 08:37:45;;;;;;;36.28;17.32;;;;;;;21.36;33.17;100624.76;1765462;80;21190;-14
2021/03/29 08:40:21;;;;;;;27.35;15.53;;;;;;;21.49;33.08;100627.09;1762878;80;21209;-13
2021/03/29 08:42:52;;;;;;;;;;;;;;;21.60;33.00;100625.55;1765451;80;21141;-14
2021/03/29 08:45:25;;;;;;;24.63;14.28;;;;;;;21.71;32.93;100633.77;1768115;81;20243;-14
2021/03/29 08:48:02;;;;;;;27.30;14.43;;;;;;;21.80;32.84;100627.81;1765005;80;21177;-13
2021/03/29 08:50:40;;;;;;;26.90;14.38;;;;;;;21.88;32.95;100622.83;1758240;80;21149;-13
2021/03/29 08:53:11;;;;;;;26.45;13.70;;;;;;;21.99;32.85;100622.61;1748282;81;21956;-13
2021/03/29 08:55:41;;;;;;;28.27;13.40;;;;;;;22.07;32.66;100625.66;1740505;79;21913;-17
2021/03/29 08:58:10;;;;;;;24.43;12.68;;;;;;;22.17;32.66;100629.95;1798047;78;21185;-14
2021/03/29 09:00:43;;;;;;;42.60;25.45;;;;;;;22.24;33.26;100632.14;1796489;78;21206;-14
2021/03/29 09:03:23;;;;;;;43.90;27.32;;;;;;;22.31;32.40;100633.97;1792528;78;21171;-16
2021/03/29 09:05:51;;;;;;;26.23;19.30;;;;;;;22.26;30.99;100635.57;1769111;78;21220;-14
2021/03/29 09:08:19;;;;;;;25.35;17.52;;;;;;;22.01;29.99;100635.45;1801554;78;21250;-14
2021/03/29 09:10:49;;;;;;;24.85;16.50;;;;;;;21.63;29.36;100642.77;1799700;78;21213;-14
2021/03/29 09:13:17;;;;;;;21.87;15.50;;;;;;;21.09;29.88;100644.23;1763773;78;21651;-17
2021/03/29 09:15:49;;;;;;;23.10;14.95;;;;;;;20.64;30.26;100648.69;1711814;79;21188;-16
2021/03/29 09:18:19;;;;;;;19.62;13.80;;;;;;;20.23;31.23;100650.59;1795691;78;21613;-14
2021/03/29 09:20:49;;;;;;;15.90;12.33;;;;;;;20.08;31.75;100652.31;1788266;78;21247;-15
2021/03/29 09:23:28;;;;;;;19.65;12.35;;;;;;;20.18;32.08;100655.33;1760242;78;21181;-16
2021/03/29 09:25:59;;;;;;;18.82;12.18;;;;;;;20.36;32.18;100656.95;1792040;79;21121;-14
2021/03/29 09:31:02;;;;;;;14.83;11.30;;;;;;;20.78;32.20;100654.59;1792163;78;21361;-14
2021/03/29 09:33:30;;;;;;;16.30;11.10;;;;;;;20.98;32.17;100658.75;1751700;79;21211;-13
2021/03/29 09:36:07;;;;;;;17.45;10.90;;;;;;;21.17;32.33;100654.97;1731846;79;21172;-13
2021/03/29 09:38:43;;;;;;;16.67;10.78;;;;;;;21.32;32.31;100656.22;1772342;78;21243;-13
2021/03/29 09:41:17;;;;;;;17.75;10.98;;;;;;;21.47;32.23;100658.46;1766005;78;21173;-13
2021/03/29 09:43:46;;;;;;;15.30;10.05;;;;;;;21.64;32.15;100663.25;1784802;78;22126;-13
2021/03/29 09:46:15;;;;;;;20.00;9.85;;;;;;;21.77;32.10;100660.19;1765761;78;21539;-13
2021/03/29 09:48:43;;;;;;;16.40;10.03;;;;;;;21.89;32.25;100664.75;1807356;78;21068;-13
2021/03/29 09:51:22;;;;;;;13.43;9.45;;;;;;;22.02;32.14;100658.60;1803374;78;21546;-13
2021/03/29 09:53:49;;;;;;;14.00;9.43;;;;;;;22.14;32.15;100663.19;1801612;78;21193;-14
2021/03/29 09:56:31;;;;;;;11.80;9.58;;;;;;;22.26;32.06;100666.89;1804569;78;21219;-13
2021/03/29 09:58:58;;;;;;;12.28;9.90;;;;;;;22.37;32.01;100662.19;1766781;79;21186;-14
2021/03/29 10:01:27;;;;;;;17.85;9.48;;;;;;;22.50;31.95;100669.80;1802752;78;21176;-13
2021/03/29 10:03:58;;;;;;;12.63;9.48;;;;;;;22.60;31.88;100666.88;1798550;78;21184;-13
2021/03/29 10:06:28;;;;;;;19.70;9.13;;;;;;;22.71;31.81;100666.64;1794211;79;21584;-13
2021/03/29 10:09:09;;;;;;;15.48;12.55;;;;;;;22.80;31.76;100672.75;1726618;81;21374;-15
2021/03/29 10:11:47;;;;;;;20.27;14.10;;;;;;;22.87;30.48;100675.39;1738437;80;21585;-13
2021/03/29 10:14:16;;;;;;;21.57;14.30;;;;;;;22.73;29.29;100682.15;1750426;80;21586;-13
2021/03/29 10:16:49;;;;;;;189.13;98.03;;;;;;;22.48;28.76;100687.83;1726154;82;21197;-17
2021/03/29 10:19:21;;;;;;;127.07;65.78;;;;;;;22.22;28.84;100682.28;1762963;79;21194;-14
2021/03/29 10:25:22;;;;;;;94.97;52.60;;;;;;;21.85;29.33;100691.34;1807888;77;22752;-14
2021/03/29 10:27:53;;;;;;;93.37;51.40;;;;;;;21.86;29.68;100693.08;1804300;78;21147;-15
2021/03/29 10:30:27;;;;;;;94.87;49.23;;;;;;;21.95;29.90;100695.64;1774940;80;22192;-13
2021/03/29 10:32:59;;;;;;;92.25;47.98;;;;;;;22.09;30.03;100694.79;1757151;80;21169;-13
2021/03/29 10:35:29;;;;;;;89.75;47.58;;;;;;;22.22;30.09;100698.86;1767244;80;21174;-13
2021/03/29 10:38:02;;;;;;;85.62;45.17;;;;;;;22.35;30.12;100694.95;1756766;80;21188;-13
2021/03/29 10:40:31;;;;;;;80.97;43.10;;;;;;;22.48;30.18;100699.89;1765864;80;21109;-12
2021/03/29 10:43:01;;;;;;;78.02;43.20;;;;;;;22.59;30.21;100694.69;1737694;81;21215;-13
2021/03/29 10:45:28;;;;;;;78.97;42.58;;;;;;;22.70;30.23;100691.77;1758925;81;21144;-14
2021/03/29 10:47:56;;;;;;;75.97;40.85;;;;;;;22.79;30.22;100688.45;1749257;80;21176;-13
2021/03/29 10:50:24;;;;;;;91.60;40.30;;;;;;;22.89;30.20;100692.23;1747937;81;21208;-14
2021/03/29 10:52:52;;;;;;;73.50;40.15;;;;;;;22.97;30.21;100690.39;1748827;81;21144;-13
2021/03/29 10:55:21;;;;;;;65.28;37.48;;;;;;;23.06;30.23;100696.48;1759036;81;21278;-14
2021/03/29 10:57:49;;;;;;;61.63;35.35;;;;;;;23.13;30.34;100694.25;1751054;81;21248;-14
2021/03/29 11:00:22;;;;;;;60.67;34.18;;;;;;;23.21;30.29;100704.48;1754683;80;21101;-14
2021/03/29 11:02:54;;;;;;;69.42;34.27;;;;;;;23.27;30.23;100695.52;1744264;81;21168;-14
2021/03/29 11:05:26;;;;;;;62.27;33.00;;;;;;;23.34;30.23;100700.83;1753758;81;21158;-16
2021/03/29 11:07:53;;;;;;;51.55;29.85;;;;;;;23.41;30.18;100704.44;1761544;80;21224;-14
2021/03/29 11:10:22;;;;;;;54.73;30.48;;;;;;;23.47;30.54;100698.63;1747316;79;21181;-14
2021/03/29 11:12:50;;;;;;;52.00;29.90;;;;;;;23.53;30.68;100699.55;1769802;79;21188;-14
2021/03/29 11:15:19;;;;;;;53.13;29.67;;;;;;;23.58;30.84;100700.57;1727293;81;21220;-14
2021/03/29 11:17:48;;;;;;;50.00;27.55;;;;;;;23.63;30.94;100701.95;1758625;81;21192;-14
2021/03/29 11:20:16;;;;;;;45.67;27.95;;;;;;;23.68;31.07;100701.14;1745447;81;21507;-17
2021/03/29 11:22:43;;;;;;;49.18;27.65;;;;;;;23.72;31.12;100705.35;1724153;80;21231;-14
2021/03/29 11:25:14;;;;;;;52.13;26.35;;;;;;;23.80;31.28;100707.97;1719074;81;21157;-14
2021/03/29 11:27:41;;;;;;;41.83;25.05;;;;;;;23.84;31.33;100706.80;1728930;81;21636;-14
2021/03/29 11:30:13;;;;;;;44.27;25.88;;;;;;;23.88;31.41;100696.22;1721170;83;21189;-16
2021/03/29 11:32:43;;;;;;;42.67;24.18;;;;;;;23.94;31.59;100701.17;1708451;81;21193;-14
2021/03/29 11:35:13;;;;;;;37.53;23.22;;;;;;;23.98;31.59;100697.28;1721412;83;21677;-17
2021/03/29 11:37:40;;;;;;;38.15;23.20;;;;;;;24.04;31.59;100700.88;1718200;83;21149;-14
2021/03/29 11:40:12;;;;;;;38.50;22.80;;;;;;;24.08;31.60;100695.64;1715354;83;21145;-13
2021/03/29 11:42:39;;;;;;;39.13;22.40;;;;;;;24.14;31.71;100694.81;1716648;83;21241;-14
2021/03/29 11:45:09;;;;;;;38.25;22.45;;;;;;;24.19;31.66;100693.99;1694143;81;21212;-14
2021/03/29 11:47:39;;;;;;;37.03;21.65;;;;;;;24.24;31.56;100695.39;1715311;83;21196;-14